sensor_id;sensor_type;location;lat;lon;timestamp;P1;durP1;ratioP1;P2;durP2;ratioP2
60306;SDS011;46155;52.364;6.580;2023-12-20T04:01:33;32.93;;;30.13;;
60306;SDS011;46155;52.364;6.580;2023-12-20T04:03:58;33.83;;;31.03;;
60306;SDS011;46155;52.364;6.580;2023-12-20T04:06:23;32.17;;;29.13;;
60306;SDS011;46155;52.364;6.580;2023-12-20T04:08:49;33.07;;;29.83;;
60306;SDS011;46155;52.364;6.580;2023-12-20T04:11:14;35.97;;;30.47;;
60306;SDS011;46155;52.364;6.580;2023-12-20T04:13:39;32.57;;;29.17;;
60306;SDS011;46155;52.364;6.580;2023-12-20T04:16:05;34.00;;;30.70;;
60306;SDS011;46155;52.364;6.580;2023-12-20T04:18:30;31.53;;;28.80;;
60306;SDS011;46155;52.364;6.580;2023-12-20T04:20:57;30.73;;;27.97;;
60306;SDS011;46155;52.364;6.580;2023-12-20T04:23:22;28.00;;;25.37;;
60306;SDS011;46155;52.364;6.580;2023-12-20T04:25:47;29.27;;;26.17;;
60306;SDS011;46155;52.364;6.580;2023-12-20T04:28:12;31.60;;;27.37;;
60306;SDS011;46155;52.364;6.580;2023-12-20T04:30:38;32.83;;;24.83;;
60306;SDS011;46155;52.364;6.580;2023-12-20T04:33:03;29.27;;;26.33;;
60306;SDS011;46155;52.364;6.580;2023-12-20T04:35:28;28.87;;;26.13;;
60306;SDS011;46155;52.364;6.580;2023-12-20T04:37:54;48.63;;;26.90;;
60306;SDS011;46155;52.364;6.580;2023-12-20T04:40:19;31.33;;;26.07;;
60306;SDS011;46155;52.364;6.580;2023-12-20T04:42:45;31.77;;;28.47;;
60306;SDS011;46155;52.364;6.580;2023-12-20T04:45:10;39.23;;;27.63;;
60306;SDS011;46155;52.364;6.580;2023-12-20T04:47:38;40.40;;;27.70;;
60306;SDS011;46155;52.364;6.580;2023-12-20T04:50:03;43.30;;;28.50;;
60306;SDS011;46155;52.364;6.580;2023-12-20T04:52:29;29.70;;;26.77;;
60306;SDS011;46155;52.364;6.580;2023-12-20T04:54:54;39.27;;;29.30;;
60306;SDS011;46155;52.364;6.580;2023-12-20T04:57:20;30.27;;;26.63;;
60306;SDS011;46155;52.364;6.580;2023-12-20T04:59:45;35.27;;;27.87;;
60306;SDS011;46155;52.364;6.580;2023-12-20T05:02:10;28.67;;;25.73;;
60306;SDS011;46155;52.364;6.580;2023-12-20T05:04:36;44.57;;;30.63;;
60306;SDS011;46155;52.364;6.580;2023-12-20T05:07:02;32.23;;;27.10;;
60306;SDS011;46155;52.364;6.580;2023-12-20T05:09:29;36.30;;;26.57;;
60306;SDS011;46155;52.364;6.580;2023-12-20T05:11:55;28.50;;;25.70;;
60306;SDS011;46155;52.364;6.580;2023-12-20T05:14:20;38.83;;;26.90;;
60306;SDS011;46155;52.364;6.580;2023-12-20T05:16:45;32.17;;;26.87;;
60306;SDS011;46155;52.364;6.580;2023-12-20T05:19:10;28.33;;;25.17;;
60306;SDS011;46155;52.364;6.580;2023-12-20T05:21:36;28.90;;;24.73;;
60306;SDS011;46155;52.364;6.580;2023-12-20T05:24:01;29.73;;;25.20;;
60306;SDS011;46155;52.364;6.580;2023-12-20T05:26:26;35.77;;;25.33;;
60306;SDS011;46155;52.364;6.580;2023-12-20T05:28:52;27.87;;;24.17;;
60306;SDS011;46155;52.364;6.580;2023-12-20T05:31:17;33.00;;;26.47;;
60306;SDS011;46155;52.364;6.580;2023-12-20T05:33:42;26.87;;;23.27;;
60306;SDS011;46155;52.364;6.580;2023-12-20T05:36:08;29.57;;;25.23;;
60306;SDS011;46155;52.364;6.580;2023-12-20T05:38:36;32.17;;;23.63;;
60306;SDS011;46155;52.364;6.580;2023-12-20T05:41:01;28.67;;;24.63;;
60306;SDS011;46155;52.364;6.580;2023-12-20T05:43:27;31.30;;;25.27;;
60306;SDS011;46155;52.364;6.580;2023-12-20T05:45:52;32.83;;;24.10;;
60306;SDS011;46155;52.364;6.580;2023-12-20T05:48:17;34.93;;;23.87;;
60306;SDS011;46155;52.364;6.580;2023-12-20T05:50:42;28.70;;;22.23;;
60306;SDS011;46155;52.364;6.580;2023-12-20T05:53:08;24.10;;;22.00;;
60306;SDS011;46155;52.364;6.580;2023-12-20T05:55:33;31.17;;;23.83;;
60306;SDS011;46155;52.364;6.580;2023-12-20T05:57:59;27.40;;;23.00;;
60306;SDS011;46155;52.364;6.580;2023-12-20T06:00:24;24.90;;;22.70;;
60306;SDS011;46155;52.364;6.580;2023-12-20T06:02:50;27.93;;;22.60;;
60306;SDS011;46155;52.364;6.580;2023-12-20T06:05:15;28.17;;;25.13;;
60306;SDS011;46155;52.364;6.580;2023-12-20T06:07:40;26.83;;;24.03;;
60306;SDS011;46155;52.364;6.580;2023-12-20T06:10:06;25.03;;;22.47;;
60306;SDS011;46155;52.364;6.580;2023-12-20T06:12:31;28.40;;;22.23;;
60306;SDS011;46155;52.364;6.580;2023-12-20T06:14:58;33.08;;;22.48;;
60306;SDS011;46155;52.364;6.580;2023-12-20T06:17:23;26.07;;;20.03;;
60306;SDS011;46155;52.364;6.580;2023-12-20T06:19:49;26.70;;;21.93;;
60306;SDS011;46155;52.364;6.580;2023-12-20T06:22:15;23.33;;;19.67;;
60306;SDS011;46155;52.364;6.580;2023-12-20T06:24:40;32.03;;;21.37;;
60306;SDS011;46155;52.364;6.580;2023-12-20T06:27:06;23.83;;;21.30;;
60306;SDS011;46155;52.364;6.580;2023-12-20T06:29:31;25.10;;;21.53;;
60306;SDS011;46155;52.364;6.580;2023-12-20T06:31:56;20.93;;;18.67;;
60306;SDS011;46155;52.364;6.580;2023-12-20T06:34:22;33.03;;;21.10;;
60306;SDS011;46155;52.364;6.580;2023-12-20T06:36:48;24.37;;;20.47;;
60306;SDS011;46155;52.364;6.580;2023-12-20T06:39:13;25.43;;;20.13;;
60306;SDS011;46155;52.364;6.580;2023-12-20T06:41:39;37.73;;;23.47;;
60306;SDS011;46155;52.364;6.580;2023-12-20T06:44:04;26.17;;;22.53;;
60306;SDS011;46155;52.364;6.580;2023-12-20T06:46:30;26.67;;;19.63;;
60306;SDS011;46155;52.364;6.580;2023-12-20T06:48:55;24.07;;;19.80;;
60306;SDS011;46155;52.364;6.580;2023-12-20T06:51:20;26.03;;;20.40;;
60306;SDS011;46155;52.364;6.580;2023-12-20T06:53:45;39.13;;;22.90;;
60306;SDS011;46155;52.364;6.580;2023-12-20T06:56:11;25.03;;;21.67;;
60306;SDS011;46155;52.364;6.580;2023-12-20T06:58:39;27.60;;;22.17;;
60306;SDS011;46155;52.364;6.580;2023-12-20T07:01:05;28.63;;;21.83;;
60306;SDS011;46155;52.364;6.580;2023-12-20T07:03:30;28.17;;;20.13;;
60306;SDS011;46155;52.364;6.580;2023-12-20T07:05:55;24.17;;;21.27;;
60306;SDS011;46155;52.364;6.580;2023-12-20T07:08:21;25.47;;;20.30;;
60306;SDS011;46155;52.364;6.580;2023-12-20T07:10:46;24.53;;;22.37;;
60306;SDS011;46155;52.364;6.580;2023-12-20T07:13:11;24.17;;;19.93;;
60306;SDS011;46155;52.364;6.580;2023-12-20T07:15:37;25.40;;;21.63;;
60306;SDS011;46155;52.364;6.580;2023-12-20T07:18:02;26.97;;;19.17;;
60306;SDS011;46155;52.364;6.580;2023-12-20T07:20:28;33.60;;;20.20;;
60306;SDS011;46155;52.364;6.580;2023-12-20T07:22:53;24.63;;;18.40;;
60306;SDS011;46155;52.364;6.580;2023-12-20T07:25:19;36.83;;;19.10;;
60306;SDS011;46155;52.364;6.580;2023-12-20T07:27:45;28.80;;;18.70;;
60306;SDS011;46155;52.364;6.580;2023-12-20T07:30:10;22.37;;;16.77;;
60306;SDS011;46155;52.364;6.580;2023-12-20T07:32:36;26.50;;;18.43;;
60306;SDS011;46155;52.364;6.580;2023-12-20T07:35:01;36.60;;;18.10;;
60306;SDS011;46155;52.364;6.580;2023-12-20T07:37:27;23.17;;;16.43;;
60306;SDS011;46155;52.364;6.580;2023-12-20T07:39:53;23.17;;;16.67;;
60306;SDS011;46155;52.364;6.580;2023-12-20T07:42:18;26.43;;;18.23;;
60306;SDS011;46155;52.364;6.580;2023-12-20T07:44:43;29.37;;;17.80;;
60306;SDS011;46155;52.364;6.580;2023-12-20T07:47:09;30.17;;;17.73;;
60306;SDS011;46155;52.364;6.580;2023-12-20T07:49:34;32.23;;;20.27;;
60306;SDS011;46155;52.364;6.580;2023-12-20T07:51:59;27.67;;;19.20;;
60306;SDS011;46155;52.364;6.580;2023-12-20T07:54:25;18.47;;;16.30;;
60306;SDS011;46155;52.364;6.580;2023-12-20T07:56:50;29.30;;;16.63;;
60306;SDS011;46155;52.364;6.580;2023-12-20T07:59:15;27.13;;;19.20;;
60306;SDS011;46155;52.364;6.580;2023-12-20T08:01:41;26.97;;;17.60;;
60306;SDS011;46155;52.364;6.580;2023-12-20T08:04:07;21.50;;;18.97;;
60306;SDS011;46155;52.364;6.580;2023-12-20T08:06:33;16.87;;;15.40;;
60306;SDS011;46155;52.364;6.580;2023-12-20T08:08:58;20.60;;;16.53;;
60306;SDS011;46155;52.364;6.580;2023-12-20T08:11:23;18.47;;;16.17;;
60306;SDS011;46155;52.364;6.580;2023-12-20T08:13:48;17.43;;;15.30;;
60306;SDS011;46155;52.364;6.580;2023-12-20T08:16:14;20.87;;;17.00;;
60306;SDS011;46155;52.364;6.580;2023-12-20T08:18:40;23.00;;;15.60;;
60306;SDS011;46155;52.364;6.580;2023-12-20T08:21:06;18.23;;;15.17;;
60306;SDS011;46155;52.364;6.580;2023-12-20T08:23:33;32.97;;;17.60;;
60306;SDS011;46155;52.364;6.580;2023-12-20T08:26:02;26.47;;;16.30;;
60306;SDS011;46155;52.364;6.580;2023-12-20T08:28:29;20.97;;;14.70;;
60306;SDS011;46155;52.364;6.580;2023-12-20T08:30:54;29.37;;;15.83;;
60306;SDS011;46155;52.364;6.580;2023-12-20T08:33:20;27.23;;;16.37;;
60306;SDS011;46155;52.364;6.580;2023-12-20T08:35:45;25.93;;;15.87;;
60306;SDS011;46155;52.364;6.580;2023-12-20T08:38:10;36.40;;;16.33;;
60306;SDS011;46155;52.364;6.580;2023-12-20T08:40:36;28.50;;;15.87;;
60306;SDS011;46155;52.364;6.580;2023-12-20T08:43:01;19.77;;;16.43;;
60306;SDS011;46155;52.364;6.580;2023-12-20T08:45:26;28.50;;;17.70;;
60306;SDS011;46155;52.364;6.580;2023-12-20T08:47:51;23.13;;;15.63;;
60306;SDS011;46155;52.364;6.580;2023-12-20T08:50:17;20.47;;;16.47;;
60306;SDS011;46155;52.364;6.580;2023-12-20T08:52:43;29.47;;;15.63;;
60306;SDS011;46155;52.364;6.580;2023-12-20T08:55:08;20.30;;;16.10;;
60306;SDS011;46155;52.364;6.580;2023-12-20T08:57:35;19.93;;;16.50;;
60306;SDS011;46155;52.364;6.580;2023-12-20T09:00:00;26.13;;;18.50;;
60306;SDS011;46155;52.364;6.580;2023-12-20T09:02:26;22.33;;;16.37;;
60306;SDS011;46155;52.364;6.580;2023-12-20T09:04:51;22.03;;;19.73;;
60306;SDS011;46155;52.364;6.580;2023-12-20T09:07:23;28.53;;;19.23;;
60306;SDS011;46155;52.364;6.580;2023-12-20T09:09:49;25.93;;;19.67;;
60306;SDS011;46155;52.364;6.580;2023-12-20T09:12:15;31.23;;;21.07;;
60306;SDS011;46155;52.364;6.580;2023-12-20T09:14:40;31.10;;;21.27;;
60306;SDS011;46155;52.364;6.580;2023-12-20T09:17:05;24.10;;;21.70;;
60306;SDS011;46155;52.364;6.580;2023-12-20T09:19:33;24.13;;;21.83;;
60306;SDS011;46155;52.364;6.580;2023-12-20T09:21:59;29.03;;;22.73;;
60306;SDS011;46155;52.364;6.580;2023-12-20T09:24:24;32.77;;;23.30;;
60306;SDS011;46155;52.364;6.580;2023-12-20T09:26:49;22.90;;;19.37;;
60306;SDS011;46155;52.364;6.580;2023-12-20T09:29:14;28.07;;;22.10;;
60306;SDS011;46155;52.364;6.580;2023-12-20T09:31:40;35.33;;;21.37;;
60306;SDS011;46155;52.364;6.580;2023-12-20T09:34:06;33.03;;;21.77;;
60306;SDS011;46155;52.364;6.580;2023-12-20T09:36:31;32.00;;;22.47;;
60306;SDS011;46155;52.364;6.580;2023-12-20T09:39:01;28.97;;;22.93;;
60306;SDS011;46155;52.364;6.580;2023-12-20T09:41:26;35.80;;;22.20;;
60306;SDS011;46155;52.364;6.580;2023-12-20T09:43:56;31.87;;;22.30;;
60306;SDS011;46155;52.364;6.580;2023-12-20T09:46:27;30.00;;;22.63;;
60306;SDS011;46155;52.364;6.580;2023-12-20T09:48:57;24.20;;;20.20;;
60306;SDS011;46155;52.364;6.580;2023-12-20T09:51:24;33.77;;;22.20;;
60306;SDS011;46155;52.364;6.580;2023-12-20T09:53:50;29.47;;;21.93;;
60306;SDS011;46155;52.364;6.580;2023-12-20T09:56:19;36.13;;;20.07;;
60306;SDS011;46155;52.364;6.580;2023-12-20T09:58:44;39.80;;;22.57;;
60306;SDS011;46155;52.364;6.580;2023-12-20T10:01:09;25.87;;;23.37;;
60306;SDS011;46155;52.364;6.580;2023-12-20T10:03:35;25.80;;;20.87;;
60306;SDS011;46155;52.364;6.580;2023-12-20T10:06:03;25.93;;;20.20;;
60306;SDS011;46155;52.364;6.580;2023-12-20T10:08:29;37.37;;;22.60;;
60306;SDS011;46155;52.364;6.580;2023-12-20T10:10:55;32.33;;;20.33;;
60306;SDS011;46155;52.364;6.580;2023-12-20T10:13:22;24.43;;;21.80;;
60306;SDS011;46155;52.364;6.580;2023-12-20T10:15:47;23.83;;;20.40;;
60306;SDS011;46155;52.364;6.580;2023-12-20T10:18:14;29.90;;;20.63;;
60306;SDS011;46155;52.364;6.580;2023-12-20T10:20:40;26.87;;;19.30;;
60306;SDS011;46155;52.364;6.580;2023-12-20T10:23:06;28.60;;;20.07;;
60306;SDS011;46155;52.364;6.580;2023-12-20T10:25:32;20.87;;;18.63;;
60306;SDS011;46155;52.364;6.580;2023-12-20T10:28:13;33.47;;;18.33;;
60306;SDS011;46155;52.364;6.580;2023-12-20T10:30:44;19.13;;;17.10;;
60306;SDS011;46155;52.364;6.580;2023-12-20T10:33:09;22.80;;;17.43;;
60306;SDS011;46155;52.364;6.580;2023-12-20T10:35:35;24.80;;;18.07;;
60306;SDS011;46155;52.364;6.580;2023-12-20T10:38:04;28.17;;;19.10;;
60306;SDS011;46155;52.364;6.580;2023-12-20T10:40:30;34.03;;;19.07;;
60306;SDS011;46155;52.364;6.580;2023-12-20T10:42:56;29.27;;;17.33;;
60306;SDS011;46155;52.364;6.580;2023-12-20T10:45:23;26.80;;;18.10;;
60306;SDS011;46155;52.364;6.580;2023-12-20T10:47:48;23.27;;;18.97;;
60306;SDS011;46155;52.364;6.580;2023-12-20T10:50:15;25.03;;;18.37;;
60306;SDS011;46155;52.364;6.580;2023-12-20T10:52:40;19.23;;;15.53;;
60306;SDS011;46155;52.364;6.580;2023-12-20T10:55:07;29.07;;;15.67;;
60306;SDS011;46155;52.364;6.580;2023-12-20T10:57:33;20.77;;;14.80;;
60306;SDS011;46155;52.364;6.580;2023-12-20T11:00:01;30.43;;;16.43;;
60306;SDS011;46155;52.364;6.580;2023-12-20T11:02:29;19.17;;;14.47;;
60306;SDS011;46155;52.364;6.580;2023-12-20T11:07:45;20.57;;;15.80;;
60306;SDS011;46155;52.364;6.580;2023-12-20T11:10:16;33.27;;;16.77;;
60306;SDS011;46155;52.364;6.580;2023-12-20T11:13:03;33.63;;;18.93;;
60306;SDS011;46155;52.364;6.580;2023-12-20T11:15:45;28.83;;;16.93;;
60306;SDS011;46155;52.364;6.580;2023-12-20T11:18:11;19.50;;;16.40;;
60306;SDS011;46155;52.364;6.580;2023-12-20T11:20:37;22.53;;;16.67;;
60306;SDS011;46155;52.364;6.580;2023-12-20T11:23:04;28.00;;;16.20;;
60306;SDS011;46155;52.364;6.580;2023-12-20T11:25:30;33.30;;;16.77;;
60306;SDS011;46155;52.364;6.580;2023-12-20T11:28:11;11.63;;;10.00;;
60306;SDS011;46155;52.364;6.580;2023-12-20T11:33:11;13.43;;;10.73;;
60306;SDS011;46155;52.364;6.580;2023-12-20T11:35:38;12.03;;;10.83;;
60306;SDS011;46155;52.364;6.580;2023-12-20T11:38:06;12.97;;;11.70;;
60306;SDS011;46155;52.364;6.580;2023-12-20T11:40:33;19.13;;;17.57;;
60306;SDS011;46155;52.364;6.580;2023-12-20T11:42:59;19.37;;;14.37;;
60306;SDS011;46155;52.364;6.580;2023-12-20T11:45:25;12.87;;;10.87;;
60306;SDS011;46155;52.364;6.580;2023-12-20T11:47:51;10.57;;;9.77;;
60306;SDS011;46155;52.364;6.580;2023-12-20T11:50:18;10.97;;;9.97;;
60306;SDS011;46155;52.364;6.580;2023-12-20T11:52:44;11.03;;;9.93;;
60306;SDS011;46155;52.364;6.580;2023-12-20T11:55:10;10.57;;;9.80;;
60306;SDS011;46155;52.364;6.580;2023-12-20T11:57:35;18.70;;;13.97;;
60306;SDS011;46155;52.364;6.580;2023-12-20T12:00:01;11.90;;;10.70;;
60306;SDS011;46155;52.364;6.580;2023-12-20T12:02:31;11.57;;;10.43;;
60306;SDS011;46155;52.364;6.580;2023-12-20T12:04:57;15.47;;;11.27;;
60306;SDS011;46155;52.364;6.580;2023-12-20T12:07:23;12.20;;;11.50;;
60306;SDS011;46155;52.364;6.580;2023-12-20T12:09:49;13.80;;;12.20;;
60306;SDS011;46155;52.364;6.580;2023-12-20T12:12:14;12.27;;;11.53;;
60306;SDS011;46155;52.364;6.580;2023-12-20T12:14:40;14.87;;;13.67;;
60306;SDS011;46155;52.364;6.580;2023-12-20T12:17:12;16.47;;;13.27;;
60306;SDS011;46155;52.364;6.580;2023-12-20T12:19:38;13.23;;;11.90;;
60306;SDS011;46155;52.364;6.580;2023-12-20T12:22:05;13.37;;;12.00;;
60306;SDS011;46155;52.364;6.580;2023-12-20T12:24:37;14.73;;;13.77;;
60306;SDS011;46155;52.364;6.580;2023-12-20T12:27:02;16.50;;;14.97;;
60306;SDS011;46155;52.364;6.580;2023-12-20T12:29:28;17.93;;;15.27;;
60306;SDS011;46155;52.364;6.580;2023-12-20T12:31:54;16.47;;;15.00;;
60306;SDS011;46155;52.364;6.580;2023-12-20T12:34:19;16.67;;;15.30;;
60306;SDS011;46155;52.364;6.580;2023-12-20T12:36:45;17.37;;;15.83;;
60306;SDS011;46155;52.364;6.580;2023-12-20T12:39:13;15.60;;;14.47;;
60306;SDS011;46155;52.364;6.580;2023-12-20T12:41:41;15.63;;;14.13;;
60306;SDS011;46155;52.364;6.580;2023-12-20T12:44:07;13.67;;;12.73;;
60306;SDS011;46155;52.364;6.580;2023-12-20T12:46:32;14.20;;;13.03;;
60306;SDS011;46155;52.364;6.580;2023-12-20T12:48:58;12.90;;;12.10;;
60306;SDS011;46155;52.364;6.580;2023-12-20T12:51:23;15.40;;;13.37;;
60306;SDS011;46155;52.364;6.580;2023-12-20T12:53:48;13.97;;;12.67;;
60306;SDS011;46155;52.364;6.580;2023-12-20T12:56:14;15.87;;;14.10;;
60306;SDS011;46155;52.364;6.580;2023-12-20T12:58:40;15.33;;;13.43;;
60306;SDS011;46155;52.364;6.580;2023-12-20T13:01:05;20.37;;;15.07;;
60306;SDS011;46155;52.364;6.580;2023-12-20T13:03:30;15.07;;;13.90;;
60306;SDS011;46155;52.364;6.580;2023-12-20T13:05:56;17.27;;;15.80;;
60306;SDS011;46155;52.364;6.580;2023-12-20T13:08:21;16.85;;;15.95;;
60306;SDS011;46155;52.364;6.580;2023-12-20T13:10:46;17.93;;;16.50;;
60306;SDS011;46155;52.364;6.580;2023-12-20T13:13:12;18.07;;;16.30;;
60306;SDS011;46155;52.364;6.580;2023-12-20T13:15:37;18.03;;;16.57;;
60306;SDS011;46155;52.364;6.580;2023-12-20T13:18:03;17.27;;;15.23;;
60306;SDS011;46155;52.364;6.580;2023-12-20T13:20:29;16.97;;;15.30;;
60306;SDS011;46155;52.364;6.580;2023-12-20T13:22:54;15.63;;;14.53;;
60306;SDS011;46155;52.364;6.580;2023-12-20T13:25:20;17.13;;;15.53;;
60306;SDS011;46155;52.364;6.580;2023-12-20T13:27:45;16.70;;;15.47;;
60306;SDS011;46155;52.364;6.580;2023-12-20T13:30:10;19.10;;;17.13;;
60306;SDS011;46155;52.364;6.580;2023-12-20T13:32:36;17.80;;;16.47;;
60306;SDS011;46155;52.364;6.580;2023-12-20T13:35:02;19.53;;;17.90;;
60306;SDS011;46155;52.364;6.580;2023-12-20T13:37:29;18.97;;;16.97;;
60306;SDS011;46155;52.364;6.580;2023-12-20T13:39:54;19.17;;;17.23;;
60306;SDS011;46155;52.364;6.580;2023-12-20T13:42:19;21.97;;;19.63;;
60306;SDS011;46155;52.364;6.580;2023-12-20T13:44:45;22.70;;;20.70;;
60306;SDS011;46155;52.364;6.580;2023-12-20T13:47:11;22.23;;;19.90;;
60306;SDS011;46155;52.364;6.580;2023-12-20T13:49:37;21.37;;;19.30;;
60306;SDS011;46155;52.364;6.580;2023-12-20T13:52:02;32.07;;;19.40;;
60306;SDS011;46155;52.364;6.580;2023-12-20T13:54:29;22.93;;;19.53;;
60306;SDS011;46155;52.364;6.580;2023-12-20T13:56:54;27.77;;;22.10;;
60306;SDS011;46155;52.364;6.580;2023-12-20T13:59:19;25.33;;;21.00;;
60306;SDS011;46155;52.364;6.580;2023-12-20T14:01:44;26.73;;;19.97;;
60306;SDS011;46155;52.364;6.580;2023-12-20T14:04:10;23.20;;;19.70;;
60306;SDS011;46155;52.364;6.580;2023-12-20T14:06:36;25.70;;;19.77;;
60306;SDS011;46155;52.364;6.580;2023-12-20T14:09:02;24.03;;;19.00;;
60306;SDS011;46155;52.364;6.580;2023-12-20T14:11:28;23.27;;;21.20;;
60306;SDS011;46155;52.364;6.580;2023-12-20T14:13:53;22.40;;;20.40;;
60306;SDS011;46155;52.364;6.580;2023-12-20T14:16:23;23.33;;;21.23;;
60306;SDS011;46155;52.364;6.580;2023-12-20T14:18:48;26.60;;;21.60;;
60306;SDS011;46155;52.364;6.580;2023-12-20T14:21:14;26.17;;;23.40;;
60306;SDS011;46155;52.364;6.580;2023-12-20T14:23:39;29.30;;;22.97;;
60306;SDS011;46155;52.364;6.580;2023-12-20T14:26:04;36.23;;;26.07;;
60306;SDS011;46155;52.364;6.580;2023-12-20T14:28:30;25.73;;;23.17;;
60306;SDS011;46155;52.364;6.580;2023-12-20T14:30:55;31.47;;;23.73;;
60306;SDS011;46155;52.364;6.580;2023-12-20T14:33:21;26.43;;;24.10;;
60306;SDS011;46155;52.364;6.580;2023-12-20T14:35:46;25.87;;;23.50;;
60306;SDS011;46155;52.364;6.580;2023-12-20T14:38:12;26.03;;;23.63;;
60306;SDS011;46155;52.364;6.580;2023-12-20T14:40:40;23.83;;;21.40;;
60306;SDS011;46155;52.364;6.580;2023-12-20T14:43:06;24.50;;;22.27;;
60306;SDS011;46155;52.364;6.580;2023-12-20T14:45:31;26.90;;;22.17;;
60306;SDS011;46155;52.364;6.580;2023-12-20T14:47:57;26.20;;;23.40;;
60306;SDS011;46155;52.364;6.580;2023-12-20T14:50:23;24.73;;;21.70;;
60306;SDS011;46155;52.364;6.580;2023-12-20T14:52:49;24.97;;;22.80;;
60306;SDS011;46155;52.364;6.580;2023-12-20T14:55:14;26.77;;;24.17;;
60306;SDS011;46155;52.364;6.580;2023-12-20T14:57:40;27.80;;;23.20;;
60306;SDS011;46155;52.364;6.580;2023-12-20T15:00:06;21.93;;;19.70;;
60306;SDS011;46155;52.364;6.580;2023-12-20T15:02:32;23.50;;;19.00;;
60306;SDS011;46155;52.364;6.580;2023-12-20T15:04:58;23.00;;;20.70;;
60306;SDS011;46155;52.364;6.580;2023-12-20T15:07:23;25.03;;;20.37;;
60306;SDS011;46155;52.364;6.580;2023-12-20T15:09:48;21.90;;;19.67;;
60306;SDS011;46155;52.364;6.580;2023-12-20T15:12:14;23.07;;;20.83;;
60306;SDS011;46155;52.364;6.580;2023-12-20T15:14:39;25.50;;;23.10;;
60306;SDS011;46155;52.364;6.580;2023-12-20T15:17:05;23.00;;;21.20;;
60306;SDS011;46155;52.364;6.580;2023-12-20T15:19:30;22.97;;;20.90;;
60306;SDS011;46155;52.364;6.580;2023-12-20T15:21:56;39.80;;;23.13;;
60306;SDS011;46155;52.364;6.580;2023-12-20T15:24:23;24.40;;;20.20;;
60306;SDS011;46155;52.364;6.580;2023-12-20T15:26:53;23.83;;;21.70;;
60306;SDS011;46155;52.364;6.580;2023-12-20T15:29:19;34.20;;;25.33;;
60306;SDS011;46155;52.364;6.580;2023-12-20T15:31:45;21.00;;;19.03;;
60306;SDS011;46155;52.364;6.580;2023-12-20T15:34:12;24.63;;;20.93;;
60306;SDS011;46155;52.364;6.580;2023-12-20T15:36:38;22.30;;;20.33;;
60306;SDS011;46155;52.364;6.580;2023-12-20T15:39:04;23.20;;;20.80;;
60306;SDS011;46155;52.364;6.580;2023-12-20T15:41:30;24.57;;;21.20;;
60306;SDS011;46155;52.364;6.580;2023-12-20T15:43:55;25.50;;;22.83;;
60306;SDS011;46155;52.364;6.580;2023-12-20T15:46:21;27.13;;;23.10;;
60306;SDS011;46155;52.364;6.580;2023-12-20T15:48:46;25.73;;;22.60;;
60306;SDS011;46155;52.364;6.580;2023-12-20T15:51:12;25.53;;;22.97;;
60306;SDS011;46155;52.364;6.580;2023-12-20T15:53:39;25.60;;;22.97;;
60306;SDS011;46155;52.364;6.580;2023-12-20T15:56:04;31.40;;;28.67;;
60306;SDS011;46155;52.364;6.580;2023-12-20T15:58:30;31.77;;;25.03;;
60306;SDS011;46155;52.364;6.580;2023-12-20T16:00:56;26.57;;;24.47;;
60306;SDS011;46155;52.364;6.580;2023-12-20T16:03:21;30.93;;;26.67;;
60306;SDS011;46155;52.364;6.580;2023-12-20T16:05:46;28.63;;;25.87;;
60306;SDS011;46155;52.364;6.580;2023-12-20T16:08:12;28.30;;;26.00;;
60306;SDS011;46155;52.364;6.580;2023-12-20T16:10:37;28.20;;;25.33;;
60306;SDS011;46155;52.364;6.580;2023-12-20T16:13:03;29.03;;;26.33;;
60306;SDS011;46155;52.364;6.580;2023-12-20T16:15:29;41.43;;;25.60;;
60306;SDS011;46155;52.364;6.580;2023-12-20T16:17:54;28.03;;;25.50;;
60306;SDS011;46155;52.364;6.580;2023-12-20T16:20:19;33.93;;;27.03;;
60306;SDS011;46155;52.364;6.580;2023-12-20T16:22:44;40.13;;;24.40;;
60306;SDS011;46155;52.364;6.580;2023-12-20T16:25:10;28.20;;;25.20;;
60306;SDS011;46155;52.364;6.580;2023-12-20T16:27:36;33.23;;;23.83;;
60306;SDS011;46155;52.364;6.580;2023-12-20T16:30:01;27.17;;;24.63;;
60306;SDS011;46155;52.364;6.580;2023-12-20T16:32:27;29.67;;;26.53;;
60306;SDS011;46155;52.364;6.580;2023-12-20T16:34:53;31.10;;;28.10;;
60306;SDS011;46155;52.364;6.580;2023-12-20T16:37:18;28.47;;;26.33;;
60306;SDS011;46155;52.364;6.580;2023-12-20T16:39:43;30.37;;;27.80;;
60306;SDS011;46155;52.364;6.580;2023-12-20T16:42:09;30.73;;;28.07;;
60306;SDS011;46155;52.364;6.580;2023-12-20T16:44:34;30.43;;;27.57;;
60306;SDS011;46155;52.364;6.580;2023-12-20T16:46:59;32.67;;;27.47;;
60306;SDS011;46155;52.364;6.580;2023-12-20T16:49:25;31.30;;;28.53;;
60306;SDS011;46155;52.364;6.580;2023-12-20T16:51:50;29.27;;;26.70;;
60306;SDS011;46155;52.364;6.580;2023-12-20T16:54:15;30.27;;;27.73;;
60306;SDS011;46155;52.364;6.580;2023-12-20T16:56:41;31.13;;;28.13;;
60306;SDS011;46155;52.364;6.580;2023-12-20T16:59:06;31.77;;;26.67;;
60306;SDS011;46155;52.364;6.580;2023-12-20T17:01:31;30.57;;;27.73;;
60306;SDS011;46155;52.364;6.580;2023-12-20T17:03:57;32.33;;;28.77;;
60306;SDS011;46155;52.364;6.580;2023-12-20T17:06:23;33.27;;;30.50;;
60306;SDS011;46155;52.364;6.580;2023-12-20T17:08:50;33.37;;;30.43;;
60306;SDS011;46155;52.364;6.580;2023-12-20T17:11:15;34.63;;;31.43;;
60306;SDS011;46155;52.364;6.580;2023-12-20T17:13:42;35.47;;;31.57;;
60306;SDS011;46155;52.364;6.580;2023-12-20T17:16:07;31.20;;;28.90;;
60306;SDS011;46155;52.364;6.580;2023-12-20T17:18:33;34.23;;;30.80;;
60306;SDS011;46155;52.364;6.580;2023-12-20T17:20:58;31.43;;;28.40;;
60306;SDS011;46155;52.364;6.580;2023-12-20T17:23:23;37.80;;;32.63;;
60306;SDS011;46155;52.364;6.580;2023-12-20T17:25:49;32.67;;;29.80;;
60306;SDS011;46155;52.364;6.580;2023-12-20T17:28:14;34.63;;;32.17;;
60306;SDS011;46155;52.364;6.580;2023-12-20T17:30:39;33.53;;;30.40;;
60306;SDS011;46155;52.364;6.580;2023-12-20T17:33:04;38.57;;;32.77;;
60306;SDS011;46155;52.364;6.580;2023-12-20T17:35:30;34.87;;;31.80;;
60306;SDS011;46155;52.364;6.580;2023-12-20T17:37:55;37.70;;;34.40;;
60306;SDS011;46155;52.364;6.580;2023-12-20T17:40:20;39.00;;;35.03;;
60306;SDS011;46155;52.364;6.580;2023-12-20T17:42:46;35.57;;;32.63;;
60306;SDS011;46155;52.364;6.580;2023-12-20T17:45:12;40.00;;;36.27;;
60306;SDS011;46155;52.364;6.580;2023-12-20T17:47:37;41.63;;;36.67;;
60306;SDS011;46155;52.364;6.580;2023-12-20T17:50:04;41.03;;;36.90;;
60306;SDS011;46155;52.364;6.580;2023-12-20T17:52:30;40.27;;;36.87;;
60306;SDS011;46155;52.364;6.580;2023-12-20T17:54:55;41.13;;;36.60;;
60306;SDS011;46155;52.364;6.580;2023-12-20T17:57:20;41.10;;;37.43;;
60306;SDS011;46155;52.364;6.580;2023-12-20T17:59:48;42.67;;;38.70;;
60306;SDS011;46155;52.364;6.580;2023-12-20T18:02:14;43.00;;;38.10;;
60306;SDS011;46155;52.364;6.580;2023-12-20T18:04:40;43.13;;;39.13;;
60306;SDS011;46155;52.364;6.580;2023-12-20T18:07:05;48.33;;;43.47;;
60306;SDS011;46155;52.364;6.580;2023-12-20T18:09:30;45.93;;;41.23;;
60306;SDS011;46155;52.364;6.580;2023-12-20T18:11:55;46.50;;;42.67;;
60306;SDS011;46155;52.364;6.580;2023-12-20T18:14:21;44.92;;;40.72;;
60306;SDS011;46155;52.364;6.580;2023-12-20T18:16:48;45.20;;;40.83;;
60306;SDS011;46155;52.364;6.580;2023-12-20T18:19:13;51.43;;;41.90;;